Time;durP1;ratioP1;P1;durP2;ratioP2;P2;SDS_P1;SDS_P2;PMS_P1;PMS_P2;Temp;Humidity;BMP_temperature;BMP_pressure;BME280_temperature;BME280_humidity;BME280_pressure;Samples;Min_cycle;Max_cycle;Signal;HPM_P1;HPM_P2
2022/12/19 00:00:27;;;;;;;108.90;42.03;;;;;;;-6.26;100.00;102374.27;3462719;84;34862;-80
2022/12/19 00:05:28;;;;;;;110.17;38.47;;;;;;;-6.25;100.00;102365.70;3453901;83;99212;-80
2022/12/19 00:10:29;;;;;;;101.43;39.70;;;;;;;-6.25;100.00;102349.63;3462518;84;34971;-80
2022/12/19 00:15:35;;;;;;;102.13;41.33;;;;;;;-6.29;100.00;102330.49;3460753;82;99395;-80
2022/12/19 00:20:36;;;;;;;;;;;;;;;-6.30;100.00;102319.48;3465312;84;26466;-80
2022/12/19 00:25:36;;;;;;;103.47;38.23;;;;;;;-6.30;100.00;102319.48;3456200;84;84755;-80
2022/12/19 00:30:37;;;;;;;105.07;40.80;;;;;;;-6.32;100.00;102310.02;3461937;84;34761;-80
2022/12/19 00:35:38;;;;;;;98.27;37.67;;;;;;;-6.34;100.00;102306.76;3454553;84;99226;-80
2022/12/19 00:40:39;;;;;;;93.33;39.70;;;;;;;-6.35;100.00;102301.91;3462558;84;34735;-80
2022/12/19 00:45:40;;;;;;;96.67;41.33;;;;;;;-6.37;100.00;102294.63;3454826;83;99221;-79
2022/12/19 00:50:41;;;;;;;103.30;40.60;;;;;;;-6.37;100.00;102303.16;3462304;84;34848;-79
2022/12/19 00:55:41;;;;;;;91.80;38.30;;;;;;;-6.38;100.00;102307.69;3465046;84;99344;-80
2022/12/19 01:00:42;;;;;;;93.97;34.63;;;;;;;-6.40;100.00;102319.16;3514382;82;32465;-79
2022/12/19 01:05:43;;;;;;;89.83;33.17;;;;;;;-6.44;100.00;102305.89;3506585;83;99195;-79
2022/12/19 01:10:46;;;;;;;86.00;30.97;;;;;;;-6.45;100.00;102298.07;3513756;83;32973;-79
2022/12/19 01:15:46;;;;;;;94.60;35.63;;;;;;;-6.46;100.00;102295.93;3508341;82;98943;-79
2022/12/19 01:20:48;;;;;;;83.20;32.00;;;;;;;-6.51;100.00;102293.09;3513954;83;32480;-80
2022/12/19 01:25:53;;;;;;;88.43;31.77;;;;;;;-6.51;100.00;102281.55;3507684;82;98788;-80
2022/12/19 01:30:55;;;;;;;86.03;32.70;;;;;;;-6.54;100.00;102277.98;3511407;83;28095;-80
2022/12/19 01:35:55;;;;;;;83.70;33.70;;;;;;;-6.56;100.00;102280.87;3514044;83;29110;-80
2022/12/19 01:40:56;;;;;;;88.20;34.97;;;;;;;-6.58;100.00;102268.74;3504210;82;99400;-80
2022/12/19 01:46:05;;;;;;;94.43;37.23;;;;;;;-6.62;100.00;102238.91;3513517;83;32461;-80
2022/12/19 01:51:24;;;;;;;82.30;35.50;;;;;;;-6.67;100.00;102247.30;3507456;83;99485;-80
2022/12/19 01:56:28;;;;;;;84.60;33.25;;;;;;;-6.69;100.00;102251.55;3506923;83;31947;-80
2022/12/19 02:01:30;;;;;;;85.95;35.28;;;;;;;-6.69;100.00;102228.80;3488980;82;99471;-79
2022/12/19 02:06:33;;;;;;;89.53;37.77;;;;;;;-6.73;100.00;102218.22;3496011;83;32997;-78
2022/12/19 02:11:35;;;;;;;107.60;41.50;;;;;;;-6.74;100.00;102227.30;3488580;82;99250;-79
2022/12/19 02:16:59;;;;;;;88.70;36.93;;;;;;;-6.73;100.00;102216.05;3498414;83;33881;-79
2022/12/19 02:22:20;;;;;;;97.30;37.10;;;;;;;-6.75;100.00;102206.92;3490986;83;99358;-79
2022/12/19 02:27:39;;;;;;;92.83;36.63;;;;;;;-6.76;100.00;102197.23;3496183;83;26241;-79
2022/12/19 02:33:18;;;;;;;94.70;35.57;;;;;;;-6.77;100.00;102192.92;3490114;82;99369;-79
2022/12/19 02:38:27;;;;;;;80.47;34.70;;;;;;;-6.80;100.00;102188.53;3494115;83;25837;-78
2022/12/19 02:43:31;;;;;;;104.20;37.83;;;;;;;-6.78;100.00;102171.21;3489032;82;99053;-79
2022/12/19 02:48:33;;;;;;;94.33;36.57;;;;;;;-6.79;100.00;102182.96;3496261;83;26159;-79
2022/12/19 02:53:36;;;;;;;87.47;35.73;;;;;;;-6.83;100.00;102185.77;3470755;82;99331;-79
2022/12/19 02:59:03;;;;;;;102.67;40.20;;;;;;;-6.88;100.00;102180.26;3495927;83;26434;-79
2022/12/19 03:04:32;;;;;;;92.15;35.63;;;;;;;-6.90;100.00;102173.48;3466432;83;99365;-80
2022/12/19 03:09:53;;;;;;;97.70;36.20;;;;;;;-6.94;100.00;102162.41;3497738;83;30999;-79
2022/12/19 03:14:57;;;;;;;100.42;38.70;;;;;;;-6.96;100.00;102159.66;3492407;83;99173;-80
2022/12/19 03:19:58;;;;;;;86.57;36.60;;;;;;;-6.99;100.00;102129.34;3497489;83;27097;-79
2022/12/19 03:25:00;;;;;;;90.07;41.13;;;;;;;-6.97;100.00;102129.92;3491789;82;98939;-79
2022/12/19 03:30:06;;;;;;;78.73;31.63;;;;;;;-6.98;100.00;102129.63;3478913;84;33037;-79
2022/12/19 03:35:21;;;;;;;98.07;37.42;;;;;;;-6.97;100.00;102113.87;3489473;83;99150;-80
2022/12/19 03:40:25;;;;;;;87.50;38.57;;;;;;;-7.00;100.00;102108.94;3497868;83;27018;-79
2022/12/19 03:45:49;;;;;;;93.37;37.00;;;;;;;-7.01;100.00;102086.73;3491243;82;99142;-79
2022/12/19 03:51:04;;;;;;;94.87;37.10;;;;;;;-7.01;100.00;102082.72;3497228;83;26350;-79
2022/12/19 03:56:23;;;;;;;86.20;35.77;;;;;;;-7.03;100.00;102084.78;3497242;82;29223;-79
2022/12/19 04:01:26;;;;;;;81.42;33.28;;;;;;;-7.05;99.88;102093.56;3452444;84;99573;-80
2022/12/19 04:06:31;;;;;;;92.97;34.33;;;;;;;-7.04;100.00;102085.03;3461751;84;25919;-79
2022/12/19 04:11:39;;;;;;;80.90;34.17;;;;;;;-7.03;99.91;102069.27;3456006;84;99312;-79
2022/12/19 04:17:11;;;;;;;85.60;34.17;;;;;;;-7.01;99.90;102076.03;3463981;84;27489;-79
2022/12/19 04:22:20;;;;;;;78.97;32.87;;;;;;;-7.00;99.82;102070.14;3455251;82;98900;-79
2022/12/19 04:27:22;;;;;;;81.63;31.60;;;;;;;-6.99;99.79;102056.55;3459936;84;25873;-79
2022/12/19 04:32:24;;;;;;;73.00;29.23;;;;;;;-6.98;99.68;102044.80;3455360;84;99169;-79
2022/12/19 04:37:26;;;;;;;83.87;34.13;;;;;;;-6.97;99.77;102035.77;3461939;84;27415;-78
2022/12/19 04:42:27;;;;;;;71.10;28.30;;;;;;;-6.96;99.68;102029.36;3456196;82;99137;-79
2022/12/19 04:47:27;;;;;;;80.20;30.23;;;;;;;-6.94;99.66;102021.09;3462337;84;32469;-79
2022/12/19 04:52:28;;;;;;;84.87;29.80;;;;;;;-6.93;99.72;102025.42;3455580;84;99045;-79
2022/12/19 04:57:30;;;;;;;78.92;30.25;;;;;;;-6.90;99.61;102024.95;3462335;84;33400;-79
2022/12/19 05:02:31;;;;;;;77.70;31.73;;;;;;;-6.88;99.61;102026.91;3455947;83;99283;-79
2022/12/19 05:07:32;;;;;;;66.20;27.57;;;;;;;-6.87;99.55;102040.05;3462533;84;33008;-79
2022/12/19 05:12:32;;;;;;;97.73;34.80;;;;;;;-6.84;99.58;102038.78;3456148;84;99184;-79
2022/12/19 05:17:33;;;;;;;71.77;29.03;;;;;;;-6.85;99.51;102043.33;3460646;84;32426;-79
2022/12/19 05:22:34;;;;;;;72.30;28.37;;;;;;;-6.81;99.57;102028.98;3436632;84;99210;-79
2022/12/19 05:27:35;;;;;;;72.80;29.03;;;;;;;-6.81;99.50;102015.05;3462862;84;31618;-79
2022/12/19 05:32:35;;;;;;;64.20;27.77;;;;;;;-6.79;99.45;102008.98;3455820;84;99218;-79
2022/12/19 05:37:36;;;;;;;63.90;24.87;;;;;;;-6.79;99.44;102004.96;3462105;84;26279;-80
2022/12/19 05:42:37;;;;;;;67.63;25.07;;;;;;;-6.77;99.49;101998.85;3456214;82;99197;-79
2022/12/19 05:47:38;;;;;;;62.67;26.47;;;;;;;-6.77;99.48;102000.73;3462172;84;25885;-79
2022/12/19 05:52:40;;;;;;;67.07;25.63;;;;;;;-6.77;99.41;101995.38;3456269;82;98952;-79
2022/12/19 05:57:40;;;;;;;70.40;25.40;;;;;;;-6.79;99.34;101989.41;3459759;84;25756;-80
2022/12/19 06:02:44;;;;;;;66.43;26.43;;;;;;;-6.80;99.40;101980.58;3453578;82;98893;-79
2022/12/19 06:07:45;;;;;;;61.73;24.03;;;;;;;-6.78;99.48;101972.30;3456649;84;28151;-79
2022/12/19 06:12:46;;;;;;;68.53;26.87;;;;;;;-6.77;99.45;101977.44;3454156;82;99235;-79
2022/12/19 06:17:47;;;;;;;57.10;24.50;;;;;;;-6.74;99.48;101974.83;3460826;84;26361;-79
2022/12/19 06:22:47;;;;;;;80.43;29.63;;;;;;;-6.74;99.43;101972.98;3455108;82;99101;-80
2022/12/19 06:27:48;;;;;;;68.90;25.03;;;;;;;-6.72;99.48;101978.13;3459941;84;26528;-80
2022/12/19 06:32:49;;;;;;;61.17;25.03;;;;;;;-6.72;99.51;101969.55;3430140;84;99114;-80
2022/12/19 06:37:50;;;;;;;65.67;22.80;;;;;;;-6.69;99.54;101962.42;3459269;84;25869;-81
2022/12/19 06:42:51;;;;;;;63.80;25.27;;;;;;;-6.68;99.57;101963.22;3451416;84;99269;-80
2022/12/19 06:47:51;;;;;;;66.60;29.17;;;;;;;-6.66;99.66;101963.83;3457988;85;33259;-80
2022/12/19 06:52:52;;;;;;;69.80;28.20;;;;;;;-6.65;99.69;101964.91;3448773;83;99140;-81
2022/12/19 06:57:54;;;;;;;76.83;29.67;;;;;;;-6.62;99.72;101953.77;3458231;84;33164;-80
2022/12/19 07:02:57;;;;;;;80.50;32.20;;;;;;;-6.61;99.75;101947.36;3451564;82;98813;-80
2022/12/19 07:07:58;;;;;;;72.00;28.07;;;;;;;-6.57;99.81;101947.72;3456110;84;33207;-80
2022/12/19 07:12:59;;;;;;;65.87;25.70;;;;;;;-6.56;99.85;101939.97;3446232;82;99337;-80
2022/12/19 07:18:03;;;;;;;59.30;23.10;;;;;;;-6.56;99.86;101942.14;3462428;84;33211;-80
2022/12/19 07:23:05;;;;;;;65.17;26.80;;;;;;;-6.52;99.91;101942.50;3449191;82;99518;-80
2022/12/19 07:28:08;;;;;;;92.00;32.67;;;;;;;-6.49;99.98;101937.50;3455880;84;25904;-80
2022/12/19 07:33:08;;;;;;;80.47;30.97;;;;;;;-6.44;100.00;101928.80;3450470;84;99155;-80
2022/12/19 07:38:09;;;;;;;72.73;28.17;;;;;;;-6.37;100.00;101932.19;3453976;84;33153;-80
2022/12/19 07:43:10;;;;;;;74.07;31.07;;;;;;;-6.31;100.00;101929.41;3452305;84;99601;-80
2022/12/19 07:48:11;;;;;;;66.80;26.17;;;;;;;-6.24;100.00;101921.25;3455763;84;33684;-79
2022/12/19 07:53:12;;;;;;;108.13;42.57;;;;;;;-6.17;100.00;101912.61;3452585;83;99315;-78
2022/12/19 07:58:13;;;;;;;86.37;36.33;;;;;;;-6.08;100.00;101902.65;3463849;84;32392;-80
2022/12/19 08:03:13;;;;;;;80.30;34.27;;;;;;;-5.98;100.00;101916.80;3486352;82;99343;-79
2022/12/19 08:08:15;;;;;;;82.20;32.20;;;;;;;-5.86;100.00;101905.55;3496204;83;26533;-80
2022/12/19 08:13:15;;;;;;;57.60;25.57;;;;;;;-5.73;100.00;101898.06;3489211;83;99210;-80
2022/12/19 08:18:17;;;;;;;59.40;28.03;;;;;;;-5.59;100.00;101887.91;3492169;83;31923;-80
2022/12/19 08:23:17;;;;;;;58.90;24.72;;;;;;;-5.45;100.00;101867.29;3485513;82;99338;-80
2022/12/19 08:28:18;;;;;;;53.20;23.57;;;;;;;-5.24;100.00;101866.66;3489395;83;29756;-80
2022/12/19 08:33:19;;;;;;;61.70;23.10;;;;;;;-5.04;100.00;101864.37;3488715;83;99383;-80
2022/12/19 08:38:20;;;;;;;54.07;23.77;;;;;;;-4.86;99.96;101862.83;3490065;83;31225;-80
2022/12/19 08:43:21;;;;;;;72.87;27.10;;;;;;;-4.74;99.60;101870.84;3486497;82;98949;-79
2022/12/19 08:48:22;;;;;;;103.83;43.67;;;;;;;-4.67;99.01;101850.00;3499536;83;29383;-80
2022/12/19 08:53:26;;;;;;;114.13;44.40;;;;;;;-4.67;99.01;101850.00;3488559;83;99410;-80
2022/12/19 08:58:29;;;;;;;113.53;42.83;;;;;;;-4.49;99.35;101876.12;3489278;83;31716;-80
2022/12/19 09:03:31;;;;;;;89.00;30.43;;;;;;;-4.38;99.33;101874.41;3452710;84;99451;-80
2022/12/19 09:08:32;;;;;;;121.27;40.73;;;;;;;-4.29;99.23;101854.14;3461451;84;26334;-80
2022/12/19 09:13:35;;;;;;;71.50;24.12;;;;;;;-4.18;99.28;101837.94;3454315;84;99536;-80
2022/12/19 09:18:36;;;;;;;71.57;26.10;;;;;;;-4.07;99.11;101831.66;3459254;84;31736;-81
2022/12/19 09:23:37;;;;;;;70.03;32.83;;;;;;;-3.95;99.27;101831.02;3452077;83;99196;-80
2022/12/19 09:28:40;;;;;;;59.55;23.67;;;;;;;-3.82;98.98;101821.23;3457662;84;31726;-81
2022/12/19 09:33:40;;;;;;;59.17;23.00;;;;;;;-3.67;98.77;101821.45;3450706;84;99226;-81
2022/12/19 09:38:42;;;;;;;60.47;25.50;;;;;;;-3.52;98.55;101824.34;3457891;84;32757;-83
2022/12/19 09:44:16;;;;;;;70.80;26.63;;;;;;;-3.40;98.39;101814.25;3441998;82;99050;-82
2022/12/19 09:49:39;;;;;;;89.77;34.47;;;;;;;-3.30;98.15;101810.86;3458530;84;28583;-81
2022/12/19 09:55:07;;;;;;;71.13;27.57;;;;;;;-3.18;97.95;101792.70;3449667;84;98956;-79
2022/12/19 10:00:16;;;;;;;63.50;25.13;;;;;;;-3.06;97.72;101777.20;3449578;84;26289;-82
2022/12/19 10:05:31;;;;;;;70.07;28.50;;;;;;;-2.95;97.82;101774.34;3455138;84;98938;-82
2022/12/19 10:11:07;;;;;;;95.43;36.77;;;;;;;-2.84;97.66;101773.36;3458407;84;26238;-82
2022/12/19 10:16:16;;;;;;;68.20;25.17;;;;;;;-2.73;97.55;101756.77;3460773;84;26101;-81
2022/12/19 10:21:54;;;;;;;67.07;31.90;;;;;;;-2.59;97.31;101761.98;3402586;82;99100;-81
2022/12/19 10:27:12;;;;;;;55.33;26.48;;;;;;;-2.29;97.59;101754.92;3456626;84;26583;-82
2022/12/19 10:32:43;;;;;;;58.33;24.47;;;;;;;-2.21;96.51;101741.49;3452875;84;99537;-81
2022/12/19 10:37:58;;;;;;;84.83;35.17;;;;;;;-2.13;96.18;101735.63;3459506;84;25844;-82
2022/12/19 10:43:16;;;;;;;67.32;27.00;;;;;;;-2.03;96.24;101719.50;3405326;83;99163;-81
2022/12/19 10:48:21;;;;;;;73.17;28.23;;;;;;;-1.93;96.05;101706.03;3454551;84;26231;-82
2022/12/19 10:53:28;;;;;;;61.00;25.93;;;;;;;-1.84;96.09;101701.23;3453344;84;99197;-82
2022/12/19 10:58:36;;;;;;;94.83;32.40;;;;;;;-1.73;95.95;101691.27;3460530;84;29712;-83
2022/12/19 11:03:40;;;;;;;62.30;24.82;;;;;;;-1.62;95.84;101661.89;3452581;82;99256;-82
2022/12/19 11:08:43;;;;;;;66.40;26.20;;;;;;;-1.52;95.18;101660.04;3310865;88;26152;-83
2022/12/19 11:13:46;;;;;;;73.47;26.20;;;;;;;-1.43;95.34;101659.77;3452796;83;98798;-83
2022/12/19 11:18:48;;;;;;;79.93;33.77;;;;;;;-1.33;95.04;101648.16;3460502;84;26616;-83
2022/12/19 11:24:12;;;;;;;57.55;25.02;;;;;;;-1.25;95.01;101638.19;3453943;84;99106;-84
2022/12/19 11:29:24;;;;;;;53.23;22.67;;;;;;;-1.14;94.92;101628.48;3460272;84;27512;-84
2022/12/19 11:34:34;;;;;;;47.98;21.97;;;;;;;-1.01;94.57;101630.63;3452591;84;99247;-83
2022/12/19 11:39:48;;;;;;;55.92;22.98;;;;;;;-0.88;94.46;101629.27;3459901;84;30973;-84
2022/12/19 11:45:06;;;;;;;49.10;21.30;;;;;;;-0.74;93.98;101624.38;3451874;84;99022;-84
2022/12/19 11:50:26;;;;;;;45.97;19.90;;;;;;;-0.62;93.40;101627.59;3458656;84;28492;-84
2022/12/19 11:55:41;;;;;;;46.27;20.70;;;;;;;-0.56;92.59;101621.08;3452999;83;98920;-85
2022/12/19 12:01:07;;;;;;;47.67;20.03;;;;;;;-0.49;92.73;101622.98;3474879;84;25904;-84
2022/12/19 12:06:17;;;;;;;50.28;20.75;;;;;;;-0.40;92.21;101607.00;3509025;83;25814;-84
2022/12/19 12:11:38;;;;;;;49.50;20.15;;;;;;;-0.32;92.42;101575.30;3499138;83;98886;-85
2022/12/19 12:16:53;;;;;;;48.43;21.20;;;;;;;-0.26;91.90;101581.22;3507449;82;27032;-85
2022/12/19 12:22:02;;;;;;;50.70;20.75;;;;;;;-0.17;91.49;101569.83;3503333;83;99301;-85
2022/12/19 12:27:48;;;;;;;61.60;25.00;;;;;;;-0.09;91.66;101547.06;3508796;82;34624;-85
2022/12/19 12:32:58;;;;;;;56.35;23.15;;;;;;;-0.02;91.03;101536.73;3501892;83;98933;-84
2022/12/19 12:38:33;;;;;;;49.93;20.97;;;;;;;0.04;90.97;101536.95;3505412;83;31370;-86
2022/12/19 12:44:08;;;;;;;50.60;19.93;;;;;;;0.10;91.16;101528.53;3500556;83;98733;-84
2022/12/19 12:49:29;;;;;;;54.67;24.23;;;;;;;0.19;90.95;101516.03;3509175;83;29487;-85
2022/12/19 12:54:38;;;;;;;49.27;23.52;;;;;;;0.27;90.88;101505.11;3497307;83;98639;-85
2022/12/19 12:59:44;;;;;;;44.70;19.67;;;;;;;0.37;90.41;101507.75;3503301;83;29466;-84
2022/12/19 13:04:58;;;;;;;49.20;20.70;;;;;;;0.46;90.12;101465.44;3488788;82;98736;-84
2022/12/19 13:10:17;;;;;;;47.35;19.30;;;;;;;0.51;90.01;101462.12;3494219;83;30419;-85
2022/12/19 13:15:35;;;;;;;50.50;22.60;;;;;;;0.58;90.02;101469.39;3488342;83;98799;-86
2022/12/19 13:20:43;;;;;;;68.43;34.97;;;;;;;0.63;89.63;101472.05;3492196;83;27525;-86
2022/12/19 13:25:49;;;;;;;71.93;35.87;;;;;;;0.67;89.64;101467.66;3473732;83;98604;-86
2022/12/19 13:31:12;;;;;;;57.75;25.68;;;;;;;0.71;89.10;101459.79;3493288;83;26332;-86
2022/12/19 13:36:55;;;;;;;52.27;22.73;;;;;;;0.72;89.35;101453.27;3495520;83;29524;-87
2022/12/19 13:47:40;;;;;;;51.20;20.48;;;;;;;0.79;89.15;101452.38;3494529;83;32463;-87
2022/12/19 13:52:40;;;;;;;48.73;21.93;;;;;;;0.80;89.18;101444.50;3468256;83;98949;-86
2022/12/19 13:57:42;;;;;;;49.40;20.73;;;;;;;0.82;88.90;101432.84;3494064;83;31585;-87
2022/12/19 14:02:51;;;;;;;47.90;21.63;;;;;;;0.81;88.40;101427.96;3472821;83;99070;-86
2022/12/19 14:07:53;;;;;;;46.27;20.53;;;;;;;0.80;88.62;101437.19;3459120;84;26379;-87
2022/12/19 14:18:26;;;;;;;49.40;20.50;;;;;;;0.85;88.57;101414.64;3454268;84;28520;-88
2022/12/19 14:23:27;;;;;;;43.95;19.90;;;;;;;0.86;88.64;101417.60;3451415;82;98800;-88
2022/12/19 14:28:40;;;;;;;55.27;20.80;;;;;;;0.86;88.51;101402.70;3460807;84;31971;-89
2022/12/19 14:33:48;;;;;;;58.57;22.77;;;;;;;0.86;88.24;101403.52;3452264;82;98463;-88
2022/12/19 14:38:49;;;;;;;55.10;21.83;;;;;;;0.87;88.17;101398.35;3459200;84;25859;-88
2022/12/19 14:43:54;;;;;;;55.10;25.80;;;;;;;0.88;87.59;101411.36;3452922;84;98862;-89
2022/12/19 14:48:59;;;;;;;121.30;56.03;;;;;;;0.89;87.93;101400.21;3458733;84;27519;-88
2022/12/19 14:54:16;;;;;;;51.73;22.57;;;;;;;0.89;87.88;101392.65;3452923;84;98984;-88
2022/12/19 14:59:34;;;;;;;62.13;27.63;;;;;;;0.91;87.80;101398.04;3454593;84;25744;-89
2022/12/19 15:04:43;;;;;;;53.13;22.90;;;;;;;0.91;87.75;101395.33;3479643;83;98348;-90
2022/12/19 15:09:55;;;;;;;53.00;22.60;;;;;;;0.93;87.80;101381.50;3491515;83;27101;-89
2022/12/19 15:15:17;;;;;;;54.13;25.25;;;;;;;0.93;87.70;101372.80;3489828;82;98781;-89
2022/12/19 15:20:19;;;;;;;59.48;23.52;;;;;;;0.96;87.89;101374.95;3495190;83;33337;-89
2022/12/19 15:25:20;;;;;;;49.67;22.52;;;;;;;0.99;87.78;101373.56;3490971;82;98317;-87
2022/12/19 15:30:21;;;;;;;48.20;22.67;;;;;;;0.99;87.67;101364.86;3494679;83;32359;-86
2022/12/19 15:35:22;;;;;;;50.87;24.20;;;;;;;1.01;87.78;101361.33;3490062;82;98742;-85
2022/12/19 15:40:23;;;;;;;59.00;23.70;;;;;;;1.02;87.67;101336.37;3494172;82;31773;-87
2022/12/19 15:45:26;;;;;;;50.10;21.70;;;;;;;1.02;87.64;101328.23;3487296;83;98573;-89
2022/12/19 15:50:31;;;;;;;52.57;24.13;;;;;;;1.05;87.72;101332.52;3494948;83;26540;-87
2022/12/19 15:55:31;;;;;;;53.20;23.10;;;;;;;1.06;87.87;101313.01;3487681;83;98829;-87
2022/12/19 16:00:35;;;;;;;52.10;24.23;;;;;;;1.08;88.05;101314.33;3494969;83;31688;-86
2022/12/19 16:05:36;;;;;;;50.25;23.18;;;;;;;1.10;88.63;101315.40;3500014;82;98676;-87
2022/12/19 16:10:37;;;;;;;59.43;26.47;;;;;;;1.08;89.04;101312.98;3508639;83;31636;-88
2022/12/19 16:15:38;;;;;;;57.27;27.53;;;;;;;1.08;89.76;101298.61;3499264;82;98316;-88
2022/12/19 16:20:41;;;;;;;55.43;24.97;;;;;;;1.06;89.75;101296.75;3507474;83;31909;-87
2022/12/19 16:25:53;;;;;;;55.15;24.67;;;;;;;1.06;89.95;101277.77;3502551;82;98838;-86
2022/12/19 16:30:51;;;;;;;58.07;23.63;;;;;;;1.06;90.27;101272.35;3503212;82;31400;-88
2022/12/19 16:35:53;;;;;;;53.77;24.77;;;;;;;1.06;90.36;101271.81;3501895;83;98551;-85
2022/12/19 16:40:56;;;;;;;53.53;26.83;;;;;;;1.06;90.71;101265.04;3508365;83;31647;-87
2022/12/19 16:45:58;;;;;;;55.63;24.47;;;;;;;1.05;90.89;101271.53;3504137;83;28567;-88
2022/12/19 16:50:59;;;;;;;54.77;26.10;;;;;;;1.05;91.33;101264.76;3501775;82;98951;-87
2022/12/19 16:56:04;;;;;;;60.63;27.70;;;;;;;1.05;91.75;101257.98;3507108;82;31889;-90
2022/12/19 17:01:08;;;;;;;69.10;30.20;;;;;;;0.97;92.40;101247.81;3498078;82;98673;-88
2022/12/19 17:06:16;;;;;;;67.40;29.70;;;;;;;1.05;93.08;101250.42;3495405;83;30589;-88
2022/12/19 17:11:21;;;;;;;65.77;31.80;;;;;;;1.03;93.77;101258.02;3467231;83;98610;-88
2022/12/19 17:16:22;;;;;;;62.73;30.10;;;;;;;1.01;94.42;101251.56;3487688;83;26241;-86
2022/12/19 17:21:25;;;;;;;65.33;31.00;;;;;;;1.01;95.22;101254.27;3488449;83;99006;-88
2022/12/19 17:26:26;;;;;;;65.90;30.03;;;;;;;0.99;96.00;101252.95;3493656;83;29454;-91
2022/12/19 17:31:28;;;;;;;66.03;31.63;;;;;;;0.98;96.59;101247.25;3485440;83;98872;-90
2022/12/19 17:36:31;;;;;;;64.83;29.00;;;;;;;0.96;97.22;101234.02;3492823;83;30307;-89
2022/12/19 17:41:33;;;;;;;64.17;30.72;;;;;;;0.95;97.91;101224.28;3487318;83;98829;-89
2022/12/19 17:46:36;;;;;;;69.20;32.13;;;;;;;0.96;98.57;101219.64;3490948;83;32394;-90
2022/12/19 17:51:36;;;;;;;67.85;30.68;;;;;;;0.92;99.72;101223.50;3485745;83;98941;-90
2022/12/19 17:56:37;;;;;;;71.37;32.23;;;;;;;0.91;99.94;101213.77;3492306;83;32191;-92
2022/12/19 18:01:40;;;;;;;66.00;30.68;;;;;;;0.92;100.00;101200.47;3481900;83;98827;-90
2022/12/19 18:06:41;;;;;;;70.67;34.67;;;;;;;0.92;100.00;101203.71;3490688;83;25978;-92
2022/12/19 18:11:42;;;;;;;73.37;32.80;;;;;;;0.91;100.00;101188.02;3487303;83;99081;-89
2022/12/19 18:16:44;;;;;;;62.03;28.40;;;;;;;0.91;100.00;101188.02;3496413;83;31657;-88
2022/12/19 18:21:46;;;;;;;57.93;27.22;;;;;;;0.72;100.00;101145.22;3490132;82;99077;-89
2022/12/19 18:26:47;;;;;;;62.53;30.37;;;;;;;0.92;100.00;101177.43;3495684;83;33331;-89
2022/12/19 18:31:48;;;;;;;60.70;28.17;;;;;;;0.93;100.00;101181.74;3487259;83;99033;-88
2022/12/19 18:36:51;;;;;;;61.37;27.93;;;;;;;0.95;100.00;101179.56;3497071;83;31630;-88
2022/12/19 18:41:53;;;;;;;69.27;31.67;;;;;;;0.93;100.00;101169.55;3490416;82;98676;-88
2022/12/19 18:46:54;;;;;;;68.97;30.77;;;;;;;0.93;100.00;101170.12;3497526;83;31896;-88
2022/12/19 18:51:55;;;;;;;61.70;27.93;;;;;;;0.95;100.00;101176.03;3490215;83;99006;-86
2022/12/19 18:56:56;;;;;;;62.00;29.17;;;;;;;0.95;100.00;101182.81;3493269;83;32172;-89
2022/12/19 19:01:57;;;;;;;65.30;31.60;;;;;;;0.96;100.00;101174.93;3489102;83;98919;-88
2022/12/19 19:06:58;;;;;;;76.17;33.73;;;;;;;0.95;100.00;101179.56;3499842;82;31615;-88
2022/12/19 19:11:59;;;;;;;69.20;31.40;;;;;;;0.96;100.00;101181.70;3498125;82;98930;-88
2022/12/19 19:17:00;;;;;;;65.97;30.17;;;;;;;0.94;100.00;101176.57;3507352;82;30952;-88
2022/12/19 19:22:01;;;;;;;64.37;31.53;;;;;;;0.97;100.00;101172.47;3503041;82;99332;-88
2022/12/19 19:27:01;;;;;;;74.47;32.13;;;;;;;0.97;100.00;101173.83;3509261;82;28810;-88
2022/12/19 19:32:02;;;;;;;61.47;30.33;;;;;;;0.97;100.00;101177.89;3499271;82;98907;-87
2022/12/19 19:37:06;;;;;;;64.63;29.13;;;;;;;0.99;100.00;101178.42;3505351;82;34845;-87
2022/12/19 19:42:07;;;;;;;66.80;31.17;;;;;;;1.00;100.00;101174.60;3498641;83;98948;-86
2022/12/19 19:47:08;;;;;;;66.57;30.50;;;;;;;1.01;100.00;101161.30;3506967;82;34792;-88
2022/12/19 19:52:09;;;;;;;67.10;32.67;;;;;;;1.03;100.00;101174.00;3499169;82;99018;-86
2022/12/19 19:57:09;;;;;;;71.47;32.67;;;;;;;1.04;100.00;101172.34;3510843;82;35885;-87
2022/12/19 20:02:11;;;;;;;62.67;27.50;;;;;;;1.05;100.00;101163.11;3502417;82;98985;-87
2022/12/19 20:07:12;;;;;;;71.27;30.80;;;;;;;1.06;100.00;101163.94;3506910;82;35842;-86
2022/12/19 20:12:13;;;;;;;69.23;32.63;;;;;;;1.05;100.00;101169.89;3499503;82;99130;-88
2022/12/19 20:17:13;;;;;;;58.50;27.57;;;;;;;1.07;100.00;101162.83;3507412;82;34864;-86
2022/12/19 20:22:14;;;;;;;68.78;29.30;;;;;;;1.09;100.00;101158.72;3502253;82;98827;-87
2022/12/19 20:27:15;;;;;;;67.10;31.03;;;;;;;1.11;100.00;101160.57;3504120;82;32633;-88
2022/12/19 20:32:16;;;;;;;58.07;27.03;;;;;;;1.11;100.00;101155.72;3498542;83;99318;-89
2022/12/19 20:37:17;;;;;;;64.50;29.67;;;;;;;1.12;100.00;101135.64;3506241;82;32531;-88
2022/12/19 20:42:18;;;;;;;53.92;26.02;;;;;;;1.14;100.00;101141.02;3501146;82;99128;-88
2022/12/19 20:47:19;;;;;;;55.00;26.43;;;;;;;1.16;100.00;101131.23;3505961;83;33224;-85
2022/12/19 20:52:19;;;;;;;64.40;28.93;;;;;;;1.17;100.00;101127.42;3494600;83;98927;-88
2022/12/19 20:57:20;;;;;;;59.53;29.77;;;;;;;1.18;100.00;101128.48;3507605;82;32476;-88
2022/12/19 21:02:21;;;;;;;61.42;28.64;;;;;;;1.20;100.00;101137.68;3499656;82;99066;-87
2022/12/19 21:07:22;;;;;;;59.73;28.70;;;;;;;1.20;100.00;101123.56;3509498;83;28046;-88
2022/12/19 21:12:23;;;;;;;67.23;28.67;;;;;;;1.24;100.00;101125.11;3500504;83;98944;-89
2022/12/19 21:17:24;;;;;;;61.17;29.67;;;;;;;1.26;100.00;101112.08;3505182;82;26313;-88
2022/12/19 21:22:25;;;;;;;62.53;27.47;;;;;;;1.28;100.00;101115.29;3498067;82;99326;-87
2022/12/19 21:27:25;;;;;;;54.20;25.90;;;;;;;1.30;100.00;101104.40;3502852;82;25928;-87
2022/12/19 21:32:26;;;;;;;64.23;28.57;;;;;;;1.33;100.00;101100.29;3499754;82;98694;-87
2022/12/19 21:37:27;;;;;;;62.07;29.30;;;;;;;1.36;100.00;101101.03;3506001;84;25963;-88
2022/12/19 21:42:28;;;;;;;61.13;27.27;;;;;;;1.39;100.00;101095.02;3500728;83;99036;-87
2022/12/19 21:47:28;;;;;;;60.57;28.00;;;;;;;1.43;100.00;101091.97;3508603;83;33730;-87
2022/12/19 21:52:29;;;;;;;63.50;29.57;;;;;;;1.45;100.00;101091.92;3499739;83;98985;-86
2022/12/19 21:57:30;;;;;;;58.73;26.10;;;;;;;1.50;100.00;101088.30;3505956;83;33527;-87
2022/12/19 22:02:31;;;;;;;62.07;29.17;;;;;;;1.54;100.00;101093.38;3495617;83;98754;-87
2022/12/19 22:07:33;;;;;;;60.57;29.50;;;;;;;1.56;100.00;101094.69;3506133;84;33271;-87
2022/12/19 22:12:34;;;;;;;49.95;24.90;;;;;;;1.58;100.00;101076.77;3496928;83;99039;-87
2022/12/19 22:17:34;;;;;;;59.03;28.83;;;;;;;1.59;100.00;101063.44;3508068;83;34100;-87
2022/12/19 22:22:35;;;;;;;56.40;26.23;;;;;;;1.58;100.00;101061.27;3500844;82;99025;-87
2022/12/19 22:27:36;;;;;;;51.83;24.77;;;;;;;1.62;100.00;101068.25;3509101;82;34169;-86
2022/12/19 22:32:37;;;;;;;58.50;27.20;;;;;;;1.64;100.00;101060.06;3500588;83;99111;-87
2022/12/19 22:37:38;;;;;;;57.73;25.73;;;;;;;1.67;100.00;101048.61;3513659;83;31636;-88
2022/12/19 22:42:39;;;;;;;55.80;25.53;;;;;;;1.68;100.00;101033.13;3504883;83;99024;-87
2022/12/19 22:47:41;;;;;;;66.17;27.90;;;;;;;1.70;100.00;101036.36;3511227;83;32732;-88
2022/12/19 22:52:41;;;;;;;59.27;26.37;;;;;;;1.73;100.00;101034.38;3505606;83;98972;-87
2022/12/19 22:57:42;;;;;;;63.77;27.07;;;;;;;1.74;100.00;101031.36;3513414;83;32124;-88
2022/12/19 23:02:43;;;;;;;56.20;26.90;;;;;;;1.79;100.00;101035.88;3507362;82;99042;-87
2022/12/19 23:07:44;;;;;;;58.87;27.57;;;;;;;1.80;100.00;101017.94;3513314;83;31807;-88
2022/12/19 23:12:45;;;;;;;58.10;24.67;;;;;;;1.85;100.00;101038.72;3498297;83;98922;-88
2022/12/19 23:17:45;;;;;;;51.10;26.03;;;;;;;1.86;100.00;101028.92;3510360;82;30042;-86